Startpagina
METAR-TAF:

METAR-TAF

Vliegvelden :

Reims, Frankrijk

breedte: 49-12-31N, lengte: 004-09-24E, hoogte: 95 m

Actueel weer

Dit bericht is 23 minuten geleden gemaakt, om 06:30 UTC
Wind 7 kt uit het noordwesten, variërend tussen het westen en het noorden
Temperatuur 15°C
Vochtigheid 88%
Druk 1014 hPa
Zicht 10 km of meer
Gebroken wolken op 1100 ft
Geheel bewolkt op 1600 ft

METAR: LFQA 250630Z AUTO 31007KT 280V350 9999 BKN011 OVC016 15/13 Q1014

Tijdstip: 08:53 (06:53 UTC)


TAF: ontbreekt

Waarnemingen en weersverwachtingen van meer dan 4000 vliegvelden (METAR en TAF).

De beschikbare stations zijn de gele en rode punten op de kaart.

Ga met uw muis naar het station om de naam te zien.

Klik dan om waarnemingen en weersverwachtingen te zien.

kaart wijzigen: klik op de groene knoppen met een zwart kruis om in te zoomen, op de groene knop met een streepje om uit te zoomen of op de groene pijlen voor aangrenzende kaarten.


METAR-TAF: